sensor_id;sensor_type;location;lat;lon;timestamp;P1;durP1;ratioP1;P2;durP2;ratioP2
15820;SDS011;8011;51.650;7.240;2022-11-11T04:01:54;4.97;;;2.20;;
15820;SDS011;8011;51.650;7.240;2022-11-11T04:04:38;2.87;;;1.90;;
15820;SDS011;8011;51.650;7.240;2022-11-11T04:07:23;5.63;;;2.40;;
15820;SDS011;8011;51.650;7.240;2022-11-11T04:10:06;3.43;;;2.50;;
15820;SDS011;8011;51.650;7.240;2022-11-11T04:12:47;5.43;;;2.47;;
15820;SDS011;8011;51.650;7.240;2022-11-11T04:15:31;4.53;;;2.20;;
15820;SDS011;8011;51.650;7.240;2022-11-11T04:18:15;2.97;;;2.30;;
15820;SDS011;8011;51.650;7.240;2022-11-11T04:20:42;2.63;;;2.00;;
15820;SDS011;8011;51.650;7.240;2022-11-11T04:23:26;4.63;;;2.40;;
15820;SDS011;8011;51.650;7.240;2022-11-11T04:25:51;5.70;;;2.37;;
15820;SDS011;8011;51.650;7.240;2022-11-11T04:28:19;4.13;;;2.50;;
15820;SDS011;8011;51.650;7.240;2022-11-11T04:31:04;4.30;;;2.73;;
15820;SDS011;8011;51.650;7.240;2022-11-11T04:33:29;2.80;;;2.23;;
15820;SDS011;8011;51.650;7.240;2022-11-11T04:35:55;5.63;;;2.47;;
15820;SDS011;8011;51.650;7.240;2022-11-11T04:38:20;4.23;;;2.30;;
15820;SDS011;8011;51.650;7.240;2022-11-11T04:41:04;4.60;;;2.07;;
15820;SDS011;8011;51.650;7.240;2022-11-11T04:43:32;5.47;;;2.30;;
15820;SDS011;8011;51.650;7.240;2022-11-11T04:46:18;4.13;;;2.53;;
15820;SDS011;8011;51.650;7.240;2022-11-11T04:48:44;3.43;;;2.50;;
15820;SDS011;8011;51.650;7.240;2022-11-11T04:51:09;2.57;;;2.20;;
15820;SDS011;8011;51.650;7.240;2022-11-11T04:53:35;5.33;;;2.63;;
15820;SDS011;8011;51.650;7.240;2022-11-11T04:56:01;5.13;;;2.80;;
15820;SDS011;8011;51.650;7.240;2022-11-11T04:58:45;5.73;;;2.30;;
15820;SDS011;8011;51.650;7.240;2022-11-11T05:01:10;3.87;;;2.50;;
15820;SDS011;8011;51.650;7.240;2022-11-11T05:03:56;5.10;;;2.80;;
15820;SDS011;8011;51.650;7.240;2022-11-11T05:06:22;4.97;;;2.50;;
15820;SDS011;8011;51.650;7.240;2022-11-11T05:09:05;5.23;;;2.50;;
15820;SDS011;8011;51.650;7.240;2022-11-11T05:11:32;3.57;;;2.37;;
15820;SDS011;8011;51.650;7.240;2022-11-11T05:14:00;6.53;;;2.90;;
15820;SDS011;8011;51.650;7.240;2022-11-11T05:16:49;3.90;;;2.67;;
15820;SDS011;8011;51.650;7.240;2022-11-11T05:19:37;4.10;;;2.77;;
15820;SDS011;8011;51.650;7.240;2022-11-11T05:24:54;4.10;;;2.77;;
15820;SDS011;8011;51.650;7.240;2022-11-11T05:27:39;5.43;;;2.50;;
15820;SDS011;8011;51.650;7.240;2022-11-11T05:30:05;5.90;;;3.10;;
15820;SDS011;8011;51.650;7.240;2022-11-11T05:32:32;4.17;;;2.33;;
15820;SDS011;8011;51.650;7.240;2022-11-11T05:34:58;5.43;;;3.07;;
15820;SDS011;8011;51.650;7.240;2022-11-11T05:37:24;5.30;;;2.80;;
15820;SDS011;8011;51.650;7.240;2022-11-11T05:39:49;3.00;;;2.00;;
15820;SDS011;8011;51.650;7.240;2022-11-11T05:42:15;4.57;;;2.80;;
15820;SDS011;8011;51.650;7.240;2022-11-11T05:44:41;2.53;;;1.97;;
15820;SDS011;8011;51.650;7.240;2022-11-11T05:47:07;7.23;;;2.90;;
15820;SDS011;8011;51.650;7.240;2022-11-11T05:49:33;4.30;;;3.00;;
15820;SDS011;8011;51.650;7.240;2022-11-11T05:51:59;3.10;;;2.30;;
15820;SDS011;8011;51.650;7.240;2022-11-11T05:54:25;5.37;;;2.80;;
15820;SDS011;8011;51.650;7.240;2022-11-11T05:56:50;4.23;;;2.20;;
15820;SDS011;8011;51.650;7.240;2022-11-11T05:59:16;4.70;;;2.63;;
15820;SDS011;8011;51.650;7.240;2022-11-11T06:01:42;3.43;;;2.33;;
15820;SDS011;8011;51.650;7.240;2022-11-11T06:04:08;3.90;;;2.23;;
15820;SDS011;8011;51.650;7.240;2022-11-11T06:06:34;4.57;;;2.50;;
15820;SDS011;8011;51.650;7.240;2022-11-11T06:09:00;3.37;;;2.50;;
15820;SDS011;8011;51.650;7.240;2022-11-11T06:11:27;3.87;;;2.40;;
15820;SDS011;8011;51.650;7.240;2022-11-11T06:13:53;3.63;;;2.40;;
15820;SDS011;8011;51.650;7.240;2022-11-11T06:16:19;3.07;;;2.40;;
15820;SDS011;8011;51.650;7.240;2022-11-11T06:18:45;4.40;;;2.60;;
15820;SDS011;8011;51.650;7.240;2022-11-11T06:21:11;3.77;;;2.27;;
15820;SDS011;8011;51.650;7.240;2022-11-11T06:23:37;4.53;;;2.60;;
15820;SDS011;8011;51.650;7.240;2022-11-11T06:26:03;4.63;;;2.80;;
15820;SDS011;8011;51.650;7.240;2022-11-11T06:28:39;5.53;;;3.20;;
15820;SDS011;8011;51.650;7.240;2022-11-11T06:31:04;4.67;;;3.03;;
15820;SDS011;8011;51.650;7.240;2022-11-11T06:33:32;4.17;;;2.70;;
15820;SDS011;8011;51.650;7.240;2022-11-11T06:36:02;3.87;;;3.00;;
15820;SDS011;8011;51.650;7.240;2022-11-11T06:38:28;3.77;;;2.90;;
15820;SDS011;8011;51.650;7.240;2022-11-11T06:40:54;5.70;;;3.50;;
15820;SDS011;8011;51.650;7.240;2022-11-11T06:43:20;5.83;;;3.80;;
15820;SDS011;8011;51.650;7.240;2022-11-11T06:45:48;8.73;;;4.60;;
15820;SDS011;8011;51.650;7.240;2022-11-11T06:48:20;7.40;;;4.33;;
15820;SDS011;8011;51.650;7.240;2022-11-11T06:50:47;7.63;;;3.87;;
15820;SDS011;8011;51.650;7.240;2022-11-11T06:53:14;6.23;;;3.73;;
15820;SDS011;8011;51.650;7.240;2022-11-11T06:55:41;3.53;;;2.77;;
15820;SDS011;8011;51.650;7.240;2022-11-11T06:58:07;5.17;;;3.47;;
15820;SDS011;8011;51.650;7.240;2022-11-11T07:00:38;6.60;;;2.87;;
15820;SDS011;8011;51.650;7.240;2022-11-11T07:03:04;5.33;;;3.07;;
15820;SDS011;8011;51.650;7.240;2022-11-11T07:05:31;5.20;;;3.33;;
15820;SDS011;8011;51.650;7.240;2022-11-11T07:08:01;5.00;;;2.57;;
15820;SDS011;8011;51.650;7.240;2022-11-11T07:10:28;4.13;;;2.60;;
15820;SDS011;8011;51.650;7.240;2022-11-11T07:12:54;3.53;;;2.50;;
15820;SDS011;8011;51.650;7.240;2022-11-11T07:15:20;4.43;;;3.00;;
15820;SDS011;8011;51.650;7.240;2022-11-11T07:17:45;4.73;;;2.70;;
15820;SDS011;8011;51.650;7.240;2022-11-11T07:20:11;4.17;;;2.73;;
15820;SDS011;8011;51.650;7.240;2022-11-11T07:22:37;3.33;;;2.33;;
15820;SDS011;8011;51.650;7.240;2022-11-11T07:25:03;4.27;;;2.97;;
15820;SDS011;8011;51.650;7.240;2022-11-11T07:27:29;4.03;;;2.57;;
15820;SDS011;8011;51.650;7.240;2022-11-11T07:29:55;3.43;;;2.50;;
15820;SDS011;8011;51.650;7.240;2022-11-11T07:32:20;3.60;;;2.53;;
15820;SDS011;8011;51.650;7.240;2022-11-11T07:34:46;3.77;;;2.47;;
15820;SDS011;8011;51.650;7.240;2022-11-11T07:37:12;4.83;;;2.90;;
15820;SDS011;8011;51.650;7.240;2022-11-11T07:39:37;4.00;;;2.43;;
15820;SDS011;8011;51.650;7.240;2022-11-11T07:42:03;3.43;;;2.33;;
15820;SDS011;8011;51.650;7.240;2022-11-11T07:44:29;5.20;;;3.00;;
15820;SDS011;8011;51.650;7.240;2022-11-11T07:46:55;3.33;;;2.70;;
15820;SDS011;8011;51.650;7.240;2022-11-11T07:49:21;5.40;;;3.33;;
15820;SDS011;8011;51.650;7.240;2022-11-11T07:51:46;5.77;;;3.57;;
15820;SDS011;8011;51.650;7.240;2022-11-11T07:54:12;5.80;;;2.60;;
15820;SDS011;8011;51.650;7.240;2022-11-11T07:56:37;3.53;;;2.53;;
15820;SDS011;8011;51.650;7.240;2022-11-11T07:59:03;6.23;;;2.70;;
15820;SDS011;8011;51.650;7.240;2022-11-11T08:01:29;3.23;;;2.40;;
15820;SDS011;8011;51.650;7.240;2022-11-11T08:03:54;5.33;;;2.50;;
15820;SDS011;8011;51.650;7.240;2022-11-11T08:06:20;4.00;;;2.40;;
15820;SDS011;8011;51.650;7.240;2022-11-11T08:08:47;4.57;;;2.60;;
15820;SDS011;8011;51.650;7.240;2022-11-11T08:11:13;7.03;;;2.50;;
15820;SDS011;8011;51.650;7.240;2022-11-11T08:13:40;5.33;;;2.37;;
15820;SDS011;8011;51.650;7.240;2022-11-11T08:16:08;3.83;;;2.00;;
15820;SDS011;8011;51.650;7.240;2022-11-11T08:18:36;4.60;;;2.57;;
15820;SDS011;8011;51.650;7.240;2022-11-11T08:21:02;5.13;;;2.20;;
15820;SDS011;8011;51.650;7.240;2022-11-11T08:23:29;3.80;;;2.37;;
15820;SDS011;8011;51.650;7.240;2022-11-11T08:28:25;2.97;;;2.10;;
15820;SDS011;8011;51.650;7.240;2022-11-11T08:30:51;4.13;;;2.57;;
15820;SDS011;8011;51.650;7.240;2022-11-11T08:33:17;3.63;;;2.33;;
15820;SDS011;8011;51.650;7.240;2022-11-11T08:35:42;4.13;;;2.10;;
15820;SDS011;8011;51.650;7.240;2022-11-11T08:38:08;4.30;;;2.30;;
15820;SDS011;8011;51.650;7.240;2022-11-11T08:40:34;2.83;;;2.30;;
15820;SDS011;8011;51.650;7.240;2022-11-11T08:43:00;3.57;;;2.40;;
15820;SDS011;8011;51.650;7.240;2022-11-11T08:45:25;5.13;;;2.17;;
15820;SDS011;8011;51.650;7.240;2022-11-11T08:47:51;2.30;;;2.10;;
15820;SDS011;8011;51.650;7.240;2022-11-11T08:50:17;5.63;;;2.03;;
15820;SDS011;8011;51.650;7.240;2022-11-11T08:52:46;4.23;;;2.27;;
15820;SDS011;8011;51.650;7.240;2022-11-11T08:55:13;5.50;;;2.37;;
15820;SDS011;8011;51.650;7.240;2022-11-11T08:57:39;4.50;;;2.33;;
15820;SDS011;8011;51.650;7.240;2022-11-11T09:00:05;2.40;;;1.90;;
15820;SDS011;8011;51.650;7.240;2022-11-11T09:02:32;3.30;;;2.10;;
15820;SDS011;8011;51.650;7.240;2022-11-11T09:04:57;3.90;;;1.80;;
15820;SDS011;8011;51.650;7.240;2022-11-11T09:07:23;3.00;;;1.90;;
15820;SDS011;8011;51.650;7.240;2022-11-11T09:09:50;5.37;;;1.97;;
15820;SDS011;8011;51.650;7.240;2022-11-11T09:12:15;2.87;;;1.90;;
15820;SDS011;8011;51.650;7.240;2022-11-11T09:14:41;4.03;;;2.10;;
15820;SDS011;8011;51.650;7.240;2022-11-11T09:17:07;5.53;;;2.10;;
15820;SDS011;8011;51.650;7.240;2022-11-11T09:19:32;2.90;;;1.93;;
15820;SDS011;8011;51.650;7.240;2022-11-11T09:21:58;2.97;;;1.77;;
15820;SDS011;8011;51.650;7.240;2022-11-11T09:24:24;4.60;;;1.70;;
15820;SDS011;8011;51.650;7.240;2022-11-11T09:26:50;2.33;;;1.80;;
15820;SDS011;8011;51.650;7.240;2022-11-11T09:29:16;3.80;;;1.90;;
15820;SDS011;8011;51.650;7.240;2022-11-11T09:31:42;2.60;;;1.70;;
15820;SDS011;8011;51.650;7.240;2022-11-11T09:34:08;3.37;;;1.77;;
15820;SDS011;8011;51.650;7.240;2022-11-11T09:36:34;3.70;;;1.70;;
15820;SDS011;8011;51.650;7.240;2022-11-11T09:39:00;4.50;;;1.80;;
15820;SDS011;8011;51.650;7.240;2022-11-11T09:50:10;3.27;;;1.80;;
15820;SDS011;8011;51.650;7.240;2022-11-11T09:52:45;2.60;;;1.80;;
15820;SDS011;8011;51.650;7.240;2022-11-11T09:55:48;6.80;;;5.20;;
15820;SDS011;8011;51.650;7.240;2022-11-11T09:58:21;2.90;;;2.53;;
15820;SDS011;8011;51.650;7.240;2022-11-11T10:00:57;3.87;;;2.10;;
15820;SDS011;8011;51.650;7.240;2022-11-11T10:03:26;5.63;;;2.60;;
15820;SDS011;8011;51.650;7.240;2022-11-11T10:06:29;2.47;;;1.40;;
15820;SDS011;8011;51.650;7.240;2022-11-11T10:08:59;6.13;;;2.60;;
15820;SDS011;8011;51.650;7.240;2022-11-11T10:11:42;6.13;;;1.90;;
15820;SDS011;8011;51.650;7.240;2022-11-11T10:14:17;5.80;;;2.87;;
15820;SDS011;8011;51.650;7.240;2022-11-11T10:16:47;6.13;;;3.70;;
15820;SDS011;8011;51.650;7.240;2022-11-11T10:22:01;3.77;;;2.10;;
15820;SDS011;8011;51.650;7.240;2022-11-11T10:24:32;5.83;;;2.50;;
15820;SDS011;8011;51.650;7.240;2022-11-11T10:27:03;3.67;;;2.20;;
15820;SDS011;8011;51.650;7.240;2022-11-11T10:29:45;2.93;;;1.80;;
15820;SDS011;8011;51.650;7.240;2022-11-11T10:34:42;2.50;;;1.20;;
15820;SDS011;8011;51.650;7.240;2022-11-11T10:37:14;2.77;;;1.30;;
15820;SDS011;8011;51.650;7.240;2022-11-11T10:39:57;2.83;;;1.50;;
15820;SDS011;8011;51.650;7.240;2022-11-11T10:42:29;2.60;;;1.27;;
15820;SDS011;8011;51.650;7.240;2022-11-11T10:44:57;1.70;;;1.00;;
15820;SDS011;8011;51.650;7.240;2022-11-11T10:50:03;2.97;;;1.43;;
15820;SDS011;8011;51.650;7.240;2022-11-11T10:52:57;1.50;;;1.27;;
15820;SDS011;8011;51.650;7.240;2022-11-11T10:55:49;4.03;;;1.20;;
15820;SDS011;8011;51.650;7.240;2022-11-11T10:58:24;2.07;;;1.10;;
15820;SDS011;8011;51.650;7.240;2022-11-11T11:00:56;1.57;;;1.10;;
15820;SDS011;8011;51.650;7.240;2022-11-11T11:03:35;2.80;;;1.10;;
15820;SDS011;8011;51.650;7.240;2022-11-11T11:06:05;2.70;;;1.20;;
15820;SDS011;8011;51.650;7.240;2022-11-11T11:08:40;2.23;;;1.00;;
15820;SDS011;8011;51.650;7.240;2022-11-11T11:11:15;3.23;;;1.43;;
15820;SDS011;8011;51.650;7.240;2022-11-11T11:13:47;4.77;;;2.10;;
15820;SDS011;8011;51.650;7.240;2022-11-11T11:16:23;3.13;;;1.33;;
15820;SDS011;8011;51.650;7.240;2022-11-11T11:21:50;2.60;;;1.33;;
15820;SDS011;8011;51.650;7.240;2022-11-11T11:24:28;1.77;;;1.47;;
15820;SDS011;8011;51.650;7.240;2022-11-11T11:27:00;2.03;;;1.00;;
15820;SDS011;8011;51.650;7.240;2022-11-11T11:32:36;2.53;;;1.37;;
15820;SDS011;8011;51.650;7.240;2022-11-11T11:34:55;3.27;;;1.40;;
15820;SDS011;8011;51.650;7.240;2022-11-11T11:37:25;2.13;;;1.20;;
15820;SDS011;8011;51.650;7.240;2022-11-11T11:39:57;2.93;;;1.17;;
15820;SDS011;8011;51.650;7.240;2022-11-11T11:42:36;3.50;;;1.60;;
15820;SDS011;8011;51.650;7.240;2022-11-11T11:45:19;2.80;;;1.17;;
15820;SDS011;8011;51.650;7.240;2022-11-11T11:48:12;3.40;;;1.60;;
15820;SDS011;8011;51.650;7.240;2022-11-11T11:50:51;2.10;;;1.13;;
15820;SDS011;8011;51.650;7.240;2022-11-11T11:56:17;1.70;;;1.30;;
15820;SDS011;8011;51.650;7.240;2022-11-11T11:58:52;2.40;;;1.07;;
15820;SDS011;8011;51.650;7.240;2022-11-11T12:09:43;2.03;;;1.30;;
15820;SDS011;8011;51.650;7.240;2022-11-11T12:12:40;2.97;;;1.43;;
15820;SDS011;8011;51.650;7.240;2022-11-11T12:20:27;2.43;;;1.03;;
15820;SDS011;8011;51.650;7.240;2022-11-11T12:26:09;3.53;;;1.50;;
15820;SDS011;8011;51.650;7.240;2022-11-11T12:29:02;5.33;;;1.63;;
15820;SDS011;8011;51.650;7.240;2022-11-11T12:32:01;1.67;;;0.90;;
15820;SDS011;8011;51.650;7.240;2022-11-11T12:41:02;1.40;;;1.10;;
15820;SDS011;8011;51.650;7.240;2022-11-11T12:43:48;1.60;;;1.00;;
15820;SDS011;8011;51.650;7.240;2022-11-11T12:51:54;1.77;;;1.10;;
15820;SDS011;8011;51.650;7.240;2022-11-11T13:02:31;4.17;;;1.17;;
15820;SDS011;8011;51.650;7.240;2022-11-11T13:08:02;3.67;;;2.33;;
15820;SDS011;8011;51.650;7.240;2022-11-11T13:11:02;12.33;;;6.10;;
15820;SDS011;8011;51.650;7.240;2022-11-11T13:16:14;8.93;;;4.60;;
15820;SDS011;8011;51.650;7.240;2022-11-11T13:24:16;6.80;;;3.37;;
15820;SDS011;8011;51.650;7.240;2022-11-11T13:26:48;6.50;;;3.13;;
15820;SDS011;8011;51.650;7.240;2022-11-11T13:32:07;9.20;;;4.90;;
15820;SDS011;8011;51.650;7.240;2022-11-11T13:34:36;8.30;;;3.87;;
15820;SDS011;8011;51.650;7.240;2022-11-11T13:37:04;7.73;;;4.13;;
15820;SDS011;8011;51.650;7.240;2022-11-11T13:39:43;17.20;;;11.23;;
15820;SDS011;8011;51.650;7.240;2022-11-11T13:42:12;10.57;;;6.80;;
15820;SDS011;8011;51.650;7.240;2022-11-11T13:47:28;4.43;;;2.63;;
15820;SDS011;8011;51.650;7.240;2022-11-11T13:52:41;2.83;;;1.93;;
15820;SDS011;8011;51.650;7.240;2022-11-11T13:57:50;5.63;;;2.30;;
15820;SDS011;8011;51.650;7.240;2022-11-11T14:02:42;3.57;;;1.70;;
15820;SDS011;8011;51.650;7.240;2022-11-11T14:15:46;2.53;;;1.30;;
15820;SDS011;8011;51.650;7.240;2022-11-11T14:20:49;3.20;;;2.10;;
15820;SDS011;8011;51.650;7.240;2022-11-11T14:25:48;2.67;;;1.70;;
15820;SDS011;8011;51.650;7.240;2022-11-11T14:39:26;5.73;;;3.03;;
15820;SDS011;8011;51.650;7.240;2022-11-11T14:44:59;4.23;;;2.40;;
15820;SDS011;8011;51.650;7.240;2022-11-11T14:47:49;7.23;;;3.17;;
15820;SDS011;8011;51.650;7.240;2022-11-11T14:50:49;6.30;;;3.73;;
15820;SDS011;8011;51.650;7.240;2022-11-11T14:53:11;5.03;;;3.03;;
15820;SDS011;8011;51.650;7.240;2022-11-11T14:55:41;2.50;;;2.00;;
15820;SDS011;8011;51.650;7.240;2022-11-11T15:03:14;2.03;;;1.43;;
15820;SDS011;8011;51.650;7.240;2022-11-11T15:06:02;1.83;;;1.50;;
15820;SDS011;8011;51.650;7.240;2022-11-11T15:08:32;2.10;;;1.40;;
15820;SDS011;8011;51.650;7.240;2022-11-11T15:19:12;1.70;;;1.40;;
15820;SDS011;8011;51.650;7.240;2022-11-11T15:22:08;3.37;;;1.67;;
15820;SDS011;8011;51.650;7.240;2022-11-11T15:30:13;2.07;;;1.23;;
15820;SDS011;8011;51.650;7.240;2022-11-11T15:38:13;2.63;;;1.30;;
15820;SDS011;8011;51.650;7.240;2022-11-11T15:40:45;2.10;;;1.10;;
15820;SDS011;8011;51.650;7.240;2022-11-11T15:43:14;2.13;;;1.30;;
15820;SDS011;8011;51.650;7.240;2022-11-11T15:45:44;2.77;;;1.03;;
15820;SDS011;8011;51.650;7.240;2022-11-11T15:48:43;3.93;;;1.60;;
15820;SDS011;8011;51.650;7.240;2022-11-11T15:53:45;2.23;;;1.33;;
15820;SDS011;8011;51.650;7.240;2022-11-11T15:56:11;3.43;;;1.53;;
15820;SDS011;8011;51.650;7.240;2022-11-11T15:58:50;3.30;;;1.90;;
15820;SDS011;8011;51.650;7.240;2022-11-11T16:01:16;2.53;;;1.70;;
15820;SDS011;8011;51.650;7.240;2022-11-11T16:03:43;5.40;;;1.80;;
15820;SDS011;8011;51.650;7.240;2022-11-11T16:06:09;3.43;;;1.70;;
15820;SDS011;8011;51.650;7.240;2022-11-11T16:08:41;1.77;;;1.30;;
15820;SDS011;8011;51.650;7.240;2022-11-11T16:11:10;1.90;;;1.30;;
15820;SDS011;8011;51.650;7.240;2022-11-11T16:13:39;1.93;;;1.70;;
15820;SDS011;8011;51.650;7.240;2022-11-11T16:21:45;2.77;;;1.70;;
15820;SDS011;8011;51.650;7.240;2022-11-11T16:24:25;2.50;;;1.50;;
15820;SDS011;8011;51.650;7.240;2022-11-11T16:26:54;2.73;;;2.00;;
15820;SDS011;8011;51.650;7.240;2022-11-11T16:29:21;2.50;;;1.80;;
15820;SDS011;8011;51.650;7.240;2022-11-11T16:31:48;2.43;;;1.87;;
15820;SDS011;8011;51.650;7.240;2022-11-11T16:39:28;1.83;;;1.60;;
15820;SDS011;8011;51.650;7.240;2022-11-11T16:41:54;3.87;;;2.00;;
15820;SDS011;8011;51.650;7.240;2022-11-11T16:44:31;3.30;;;2.10;;
15820;SDS011;8011;51.650;7.240;2022-11-11T16:46:58;2.77;;;2.10;;
15820;SDS011;8011;51.650;7.240;2022-11-11T16:49:26;3.00;;;2.47;;
15820;SDS011;8011;51.650;7.240;2022-11-11T16:52:16;2.83;;;2.30;;
15820;SDS011;8011;51.650;7.240;2022-11-11T16:54:49;5.37;;;2.17;;
15820;SDS011;8011;51.650;7.240;2022-11-11T16:57:18;4.40;;;2.03;;
15820;SDS011;8011;51.650;7.240;2022-11-11T16:59:49;3.90;;;2.27;;
15820;SDS011;8011;51.650;7.240;2022-11-11T17:02:20;2.40;;;2.10;;
15820;SDS011;8011;51.650;7.240;2022-11-11T17:07:31;4.33;;;2.90;;
15820;SDS011;8011;51.650;7.240;2022-11-11T17:12:43;5.00;;;2.90;;
15820;SDS011;8011;51.650;7.240;2022-11-11T17:15:12;4.63;;;2.93;;
15820;SDS011;8011;51.650;7.240;2022-11-11T17:17:40;4.07;;;3.00;;
15820;SDS011;8011;51.650;7.240;2022-11-11T17:20:28;3.70;;;2.83;;
15820;SDS011;8011;51.650;7.240;2022-11-11T17:22:54;3.63;;;2.90;;
15820;SDS011;8011;51.650;7.240;2022-11-11T17:25:21;3.40;;;2.70;;
15820;SDS011;8011;51.650;7.240;2022-11-11T17:27:47;3.60;;;2.87;;
15820;SDS011;8011;51.650;7.240;2022-11-11T17:30:13;3.80;;;2.90;;
15820;SDS011;8011;51.650;7.240;2022-11-11T17:32:39;5.03;;;3.33;;
15820;SDS011;8011;51.650;7.240;2022-11-11T17:35:05;3.70;;;3.10;;
15820;SDS011;8011;51.650;7.240;2022-11-11T17:37:32;6.93;;;3.60;;
15820;SDS011;8011;51.650;7.240;2022-11-11T17:39:59;6.17;;;3.47;;
15820;SDS011;8011;51.650;7.240;2022-11-11T17:42:26;4.77;;;3.47;;
15820;SDS011;8011;51.650;7.240;2022-11-11T17:44:53;4.10;;;3.37;;
15820;SDS011;8011;51.650;7.240;2022-11-11T17:47:19;4.03;;;3.30;;
15820;SDS011;8011;51.650;7.240;2022-11-11T17:49:45;5.33;;;3.40;;
15820;SDS011;8011;51.650;7.240;2022-11-11T17:52:11;5.67;;;3.77;;
15820;SDS011;8011;51.650;7.240;2022-11-11T17:54:36;3.50;;;3.20;;
15820;SDS011;8011;51.650;7.240;2022-11-11T17:57:02;6.57;;;4.03;;
15820;SDS011;8011;51.650;7.240;2022-11-11T17:59:28;10.80;;;7.30;;
15820;SDS011;8011;51.650;7.240;2022-11-11T18:01:54;9.10;;;7.00;;
15820;SDS011;8011;51.650;7.240;2022-11-11T18:04:20;9.87;;;6.87;;
15820;SDS011;8011;51.650;7.240;2022-11-11T18:06:46;11.03;;;6.43;;
15820;SDS011;8011;51.650;7.240;2022-11-11T18:09:12;9.43;;;6.47;;
15820;SDS011;8011;51.650;7.240;2022-11-11T18:11:37;10.27;;;6.73;;
15820;SDS011;8011;51.650;7.240;2022-11-11T18:14:03;10.13;;;6.57;;
15820;SDS011;8011;51.650;7.240;2022-11-11T18:16:29;10.70;;;6.47;;
15820;SDS011;8011;51.650;7.240;2022-11-11T18:18:55;6.90;;;6.20;;
15820;SDS011;8011;51.650;7.240;2022-11-11T18:21:25;8.90;;;6.20;;
15820;SDS011;8011;51.650;7.240;2022-11-11T18:23:51;7.67;;;6.47;;
15820;SDS011;8011;51.650;7.240;2022-11-11T18:26:17;9.10;;;7.50;;
15820;SDS011;8011;51.650;7.240;2022-11-11T18:28:43;9.50;;;7.27;;
15820;SDS011;8011;51.650;7.240;2022-11-11T18:31:10;8.93;;;6.53;;
15820;SDS011;8011;51.650;7.240;2022-11-11T18:33:37;10.20;;;7.27;;
15820;SDS011;8011;51.650;7.240;2022-11-11T18:36:09;11.70;;;8.53;;
15820;SDS011;8011;51.650;7.240;2022-11-11T18:38:36;13.40;;;9.13;;
15820;SDS011;8011;51.650;7.240;2022-11-11T18:41:06;8.83;;;7.30;;
15820;SDS011;8011;51.650;7.240;2022-11-11T18:43:38;10.17;;;7.23;;
15820;SDS011;8011;51.650;7.240;2022-11-11T18:46:09;12.07;;;7.90;;
15820;SDS011;8011;51.650;7.240;2022-11-11T18:48:39;10.27;;;7.23;;
15820;SDS011;8011;51.650;7.240;2022-11-11T18:51:05;8.60;;;6.47;;
15820;SDS011;8011;51.650;7.240;2022-11-11T18:53:32;9.77;;;7.30;;
15820;SDS011;8011;51.650;7.240;2022-11-11T18:56:11;10.20;;;7.83;;
15820;SDS011;8011;51.650;7.240;2022-11-11T18:58:38;8.43;;;6.77;;
15820;SDS011;8011;51.650;7.240;2022-11-11T19:01:05;10.37;;;7.30;;
15820;SDS011;8011;51.650;7.240;2022-11-11T19:03:36;11.77;;;7.03;;
15820;SDS011;8011;51.650;7.240;2022-11-11T19:06:05;7.67;;;6.37;;
15820;SDS011;8011;51.650;7.240;2022-11-11T19:08:33;10.00;;;7.33;;
15820;SDS011;8011;51.650;7.240;2022-11-11T19:10:59;16.27;;;7.20;;
15820;SDS011;8011;51.650;7.240;2022-11-11T19:13:25;9.80;;;5.90;;
15820;SDS011;8011;51.650;7.240;2022-11-11T19:15:51;8.27;;;6.13;;
15820;SDS011;8011;51.650;7.240;2022-11-11T19:18:18;10.30;;;7.23;;
15820;SDS011;8011;51.650;7.240;2022-11-11T19:20:44;8.93;;;7.13;;
15820;SDS011;8011;51.650;7.240;2022-11-11T19:23:10;9.83;;;6.70;;
15820;SDS011;8011;51.650;7.240;2022-11-11T19:25:36;7.93;;;5.93;;
15820;SDS011;8011;51.650;7.240;2022-11-11T19:28:02;7.87;;;5.83;;
15820;SDS011;8011;51.650;7.240;2022-11-11T19:30:29;9.27;;;7.00;;
15820;SDS011;8011;51.650;7.240;2022-11-11T19:32:55;9.50;;;7.60;;
15820;SDS011;8011;51.650;7.240;2022-11-11T19:35:21;8.73;;;6.67;;
15820;SDS011;8011;51.650;7.240;2022-11-11T19:37:47;10.57;;;7.60;;
15820;SDS011;8011;51.650;7.240;2022-11-11T19:40:13;9.13;;;7.10;;
15820;SDS011;8011;51.650;7.240;2022-11-11T19:42:38;8.20;;;6.97;;
15820;SDS011;8011;51.650;7.240;2022-11-11T19:45:04;9.23;;;7.00;;
15820;SDS011;8011;51.650;7.240;2022-11-11T19:47:30;6.93;;;6.23;;
15820;SDS011;8011;51.650;7.240;2022-11-11T19:49:56;9.77;;;6.93;;
15820;SDS011;8011;51.650;7.240;2022-11-11T19:52:22;9.67;;;7.13;;
15820;SDS011;8011;51.650;7.240;2022-11-11T19:54:47;8.17;;;6.57;;
15820;SDS011;8011;51.650;7.240;2022-11-11T19:57:13;9.37;;;6.87;;
15820;SDS011;8011;51.650;7.240;2022-11-11T19:59:39;9.73;;;6.60;;
15820;SDS011;8011;51.650;7.240;2022-11-11T20:02:04;11.27;;;8.47;;
15820;SDS011;8011;51.650;7.240;2022-11-11T20:04:31;10.63;;;8.33;;
15820;SDS011;8011;51.650;7.240;2022-11-11T20:06:57;9.97;;;7.67;;
15820;SDS011;8011;51.650;7.240;2022-11-11T20:09:23;10.40;;;7.63;;
15820;SDS011;8011;51.650;7.240;2022-11-11T20:11:48;9.90;;;7.57;;
15820;SDS011;8011;51.650;7.240;2022-11-11T20:14:14;9.87;;;7.30;;
15820;SDS011;8011;51.650;7.240;2022-11-11T20:16:40;9.30;;;7.03;;
15820;SDS011;8011;51.650;7.240;2022-11-11T20:19:05;8.27;;;6.40;;
15820;SDS011;8011;51.650;7.240;2022-11-11T20:21:33;9.67;;;7.03;;
15820;SDS011;8011;51.650;7.240;2022-11-11T20:23:58;10.43;;;7.10;;
15820;SDS011;8011;51.650;7.240;2022-11-11T20:26:24;9.60;;;6.90;;
15820;SDS011;8011;51.650;7.240;2022-11-11T20:28:54;9.87;;;7.07;;
15820;SDS011;8011;51.650;7.240;2022-11-11T20:31:22;7.23;;;5.70;;
15820;SDS011;8011;51.650;7.240;2022-11-11T20:33:48;6.87;;;5.80;;
15820;SDS011;8011;51.650;7.240;2022-11-11T20:36:16;6.93;;;4.80;;
15820;SDS011;8011;51.650;7.240;2022-11-11T20:38:42;6.10;;;4.73;;
15820;SDS011;8011;51.650;7.240;2022-11-11T20:41:14;5.57;;;4.93;;
15820;SDS011;8011;51.650;7.240;2022-11-11T20:43:41;7.97;;;5.57;;
15820;SDS011;8011;51.650;7.240;2022-11-11T20:46:09;6.63;;;5.27;;
15820;SDS011;8011;51.650;7.240;2022-11-11T20:48:41;6.33;;;5.27;;
15820;SDS011;8011;51.650;7.240;2022-11-11T20:53:35;6.93;;;5.63;;
15820;SDS011;8011;51.650;7.240;2022-11-11T20:56:05;6.20;;;4.90;;
15820;SDS011;8011;51.650;7.240;2022-11-11T20:58:33;7.57;;;5.50;;
15820;SDS011;8011;51.650;7.240;2022-11-11T21:01:00;9.50;;;6.47;;
15820;SDS011;8011;51.650;7.240;2022-11-11T21:03:30;10.47;;;7.10;;
15820;SDS011;8011;51.650;7.240;2022-11-11T21:06:03;7.80;;;6.33;;
15820;SDS011;8011;51.650;7.240;2022-11-11T21:08:31;7.97;;;6.50;;
15820;SDS011;8011;51.650;7.240;2022-11-11T21:10:57;10.70;;;7.23;;
15820;SDS011;8011;51.650;7.240;2022-11-11T21:13:23;8.27;;;5.63;;
15820;SDS011;8011;51.650;7.240;2022-11-11T21:15:50;6.17;;;5.57;;
15820;SDS011;8011;51.650;7.240;2022-11-11T21:18:16;7.37;;;5.43;;
15820;SDS011;8011;51.650;7.240;2022-11-11T21:20:41;8.47;;;6.33;;
15820;SDS011;8011;51.650;7.240;2022-11-11T21:23:07;6.97;;;5.37;;
15820;SDS011;8011;51.650;7.240;2022-11-11T21:25:33;7.70;;;5.27;;
15820;SDS011;8011;51.650;7.240;2022-11-11T21:28:01;8.50;;;5.17;;
15820;SDS011;8011;51.650;7.240;2022-11-11T21:30:29;8.03;;;6.63;;
15820;SDS011;8011;51.650;7.240;2022-11-11T21:32:58;7.93;;;5.47;;
15820;SDS011;8011;51.650;7.240;2022-11-11T21:35:24;7.47;;;5.57;;
15820;SDS011;8011;51.650;7.240;2022-11-11T21:37:53;6.00;;;4.87;;
15820;SDS011;8011;51.650;7.240;2022-11-11T21:40:20;5.57;;;4.43;;
15820;SDS011;8011;51.650;7.240;2022-11-11T21:42:45;5.77;;;4.83;;
15820;SDS011;8011;51.650;7.240;2022-11-11T21:45:11;6.27;;;4.80;;
15820;SDS011;8011;51.650;7.240;2022-11-11T21:47:37;5.63;;;4.63;;
15820;SDS011;8011;51.650;7.240;2022-11-11T21:50:03;5.33;;;4.37;;
15820;SDS011;8011;51.650;7.240;2022-11-11T21:52:29;5.60;;;3.97;;
15820;SDS011;8011;51.650;7.240;2022-11-11T21:54:54;5.90;;;4.23;;
15820;SDS011;8011;51.650;7.240;2022-11-11T21:57:20;6.33;;;4.37;;
15820;SDS011;8011;51.650;7.240;2022-11-11T21:59:45;5.73;;;4.80;;
15820;SDS011;8011;51.650;7.240;2022-11-11T22:02:11;6.07;;;4.60;;
15820;SDS011;8011;51.650;7.240;2022-11-11T22:04:37;6.10;;;4.00;;